createdAt,value
2023-05-19T00:01:00.511Z,9.00
2023-05-19T00:03:27.563Z,8.95
2023-05-19T00:05:55.669Z,8.91
2023-05-19T00:08:24.685Z,8.90
2023-05-19T00:10:51.471Z,8.73
2023-05-19T00:13:18.379Z,8.74
2023-05-19T00:15:45.191Z,8.82
2023-05-19T00:18:14.091Z,8.66
2023-05-19T00:20:41.292Z,8.59
2023-05-19T00:23:07.910Z,8.44
2023-05-19T00:25:34.418Z,8.24
2023-05-19T00:28:02.428Z,8.22
2023-05-19T00:30:32.421Z,8.16
2023-05-19T00:32:59.096Z,8.19
2023-05-19T00:35:25.678Z,8.16
2023-05-19T00:37:52.193Z,8.08
2023-05-19T00:40:18.933Z,7.88
2023-05-19T00:42:45.627Z,7.85
2023-05-19T00:45:12.136Z,7.49
2023-05-19T00:47:39.760Z,7.45
2023-05-19T00:50:06.831Z,7.29
2023-05-19T00:52:33.680Z,7.22
2023-05-19T00:55:00.286Z,7.08
2023-05-19T00:57:27.833Z,7.01
2023-05-19T00:59:54.925Z,6.80
2023-05-19T01:02:21.660Z,6.83
2023-05-19T01:04:50.274Z,6.67
2023-05-19T01:07:16.766Z,6.65
2023-05-19T01:09:43.962Z,6.43
2023-05-19T01:12:10.591Z,6.37
2023-05-19T01:14:37.193Z,6.30
2023-05-19T01:17:09.865Z,6.29
2023-05-19T01:19:46.726Z,6.17
2023-05-19T01:22:42.813Z,6.15
2023-05-19T01:25:46.912Z,6.13
2023-05-19T01:28:26.133Z,6.01
2023-05-19T01:30:55.534Z,6.20
2023-05-19T01:33:23.546Z,6.13
2023-05-19T01:35:51.348Z,6.07
2023-05-19T01:38:19.547Z,5.96
2023-05-19T01:40:48.368Z,6.02
2023-05-19T01:43:21.158Z,6.05
2023-05-19T01:45:48.895Z,5.99
2023-05-19T01:48:16.266Z,6.00
2023-05-19T01:50:43.869Z,5.86
2023-05-19T01:53:10.652Z,5.70
2023-05-19T01:55:48.122Z,5.72
2023-05-19T01:58:29.907Z,5.56
2023-05-19T02:01:05.609Z,5.50
2023-05-19T02:03:41.294Z,5.49
2023-05-19T02:06:36.073Z,5.58
2023-05-19T02:09:26.924Z,5.39
2023-05-19T02:12:03.438Z,5.44
2023-05-19T02:14:35.402Z,5.41
2023-05-19T02:17:04.366Z,5.35
2023-05-19T02:19:33.542Z,5.17
2023-05-19T02:22:00.162Z,5.25
2023-05-19T02:24:26.746Z,5.29
2023-05-19T02:26:54.036Z,5.16
2023-05-19T02:29:20.985Z,5.15
2023-05-19T02:31:47.751Z,5.17
2023-05-19T02:34:14.885Z,5.03
2023-05-19T02:36:43.108Z,4.91
2023-05-19T02:39:11.020Z,4.97
2023-05-19T02:41:40.913Z,5.02
2023-05-19T02:44:08.025Z,4.82
2023-05-19T02:46:36.265Z,4.72
2023-05-19T02:49:03.825Z,4.80
2023-05-19T02:51:30.518Z,4.63
2023-05-19T02:53:57.092Z,4.55
2023-05-19T02:56:23.664Z,4.51
2023-05-19T02:58:50.721Z,4.58
2023-05-19T03:01:17.652Z,4.56
2023-05-19T03:03:44.340Z,4.62
2023-05-19T03:06:11.252Z,4.50
2023-05-19T03:08:39.404Z,4.61
2023-05-19T03:11:08.113Z,4.56
2023-05-19T03:13:34.893Z,4.55
2023-05-19T03:16:02.131Z,4.47
2023-05-19T03:18:28.959Z,4.40
2023-05-19T03:20:55.566Z,4.44
2023-05-19T03:23:22.444Z,4.48
2023-05-19T03:25:48.972Z,4.52
2023-05-19T03:28:15.708Z,4.56
2023-05-19T03:30:42.245Z,4.43
2023-05-19T03:33:13.474Z,4.43
2023-05-19T03:35:40.875Z,4.35
2023-05-19T03:38:07.979Z,4.25
2023-05-19T03:40:35.131Z,4.34
2023-05-19T03:43:07.641Z,4.33
2023-05-19T03:45:41.219Z,4.22
2023-05-19T03:48:27.752Z,4.07
2023-05-19T03:51:14.217Z,4.14
2023-05-19T03:53:41.278Z,4.07
2023-05-19T03:56:08.199Z,3.93
2023-05-19T03:58:36.956Z,4.04
2023-05-19T04:01:03.481Z,4.04
2023-05-19T04:03:30.558Z,4.07
2023-05-19T04:05:57.119Z,4.17
2023-05-19T04:08:23.672Z,4.20
2023-05-19T04:10:50.181Z,4.18
2023-05-19T04:13:16.697Z,4.27
2023-05-19T04:15:43.261Z,4.19
2023-05-19T04:18:09.897Z,4.20
2023-05-19T04:20:36.469Z,4.23
2023-05-19T04:23:03.220Z,4.23
2023-05-19T04:25:30.093Z,4.30
2023-05-19T04:27:57.887Z,4.47
2023-05-19T04:30:25.084Z,4.43
2023-05-19T04:32:52.313Z,4.67
2023-05-19T04:35:19.467Z,4.77
2023-05-19T04:37:46.826Z,4.68
2023-05-19T04:40:15.630Z,4.74
2023-05-19T04:42:45.823Z,4.85
2023-05-19T04:45:14.068Z,4.95
2023-05-19T04:47:44.333Z,5.22
2023-05-19T04:50:11.392Z,5.30
2023-05-19T04:52:37.940Z,5.41
2023-05-19T04:55:06.014Z,5.59
2023-05-19T04:57:32.503Z,5.67
2023-05-19T05:00:00.370Z,5.99
2023-05-19T05:02:33.883Z,5.94
2023-05-19T05:05:00.720Z,5.98
2023-05-19T05:07:28.020Z,6.28
2023-05-19T05:09:55.734Z,6.64
2023-05-19T05:12:22.657Z,7.45
2023-05-19T05:14:50.382Z,7.59
2023-05-19T05:17:17.932Z,8.27
2023-05-19T05:19:44.701Z,9.33
2023-05-19T05:22:12.159Z,9.29
2023-05-19T05:24:40.293Z,10.13
2023-05-19T05:27:10.004Z,9.89
2023-05-19T05:29:37.054Z,9.80
2023-05-19T05:32:05.816Z,9.78
2023-05-19T05:34:33.673Z,10.21
2023-05-19T05:37:00.622Z,10.00
2023-05-19T05:39:28.059Z,10.07
2023-05-19T05:41:54.863Z,10.05
2023-05-19T05:44:22.214Z,10.20
2023-05-19T05:46:50.263Z,10.82
2023-05-19T05:49:17.796Z,10.53
2023-05-19T05:52:01.489Z,11.77
2023-05-19T05:54:34.034Z,12.49
2023-05-19T05:57:02.490Z,13.07
2023-05-19T05:59:29.567Z,12.49
2023-05-19T06:01:56.332Z,12.13
2023-05-19T06:04:23.406Z,12.03
2023-05-19T06:06:49.909Z,12.45
2023-05-19T06:09:20.998Z,13.30
2023-05-19T06:11:47.590Z,12.71
2023-05-19T06:14:14.449Z,12.78
2023-05-19T06:16:52.185Z,12.32
2023-05-19T06:19:20.123Z,11.85
2023-05-19T06:21:46.978Z,11.60
2023-05-19T06:24:14.807Z,11.77
2023-05-19T06:26:41.770Z,11.65
2023-05-19T06:29:08.345Z,11.70
2023-05-19T06:31:34.950Z,11.82
2023-05-19T06:34:17.468Z,12.61
2023-05-19T06:36:45.495Z,12.92
2023-05-19T06:39:12.714Z,12.85
2023-05-19T06:41:39.272Z,12.73
2023-05-19T06:44:08.350Z,12.73
2023-05-19T06:46:35.147Z,13.14
2023-05-19T06:49:01.838Z,12.93
2023-05-19T06:51:32.546Z,13.29
2023-05-19T06:53:59.740Z,13.38
2023-05-19T06:56:26.904Z,13.68
2023-05-19T06:58:53.547Z,14.13
2023-05-19T07:01:26.460Z,13.73
2023-05-19T07:03:55.188Z,13.59
2023-05-19T07:06:22.395Z,14.59
2023-05-19T07:08:50.527Z,15.59
2023-05-19T07:11:17.892Z,17.41
2023-05-19T07:13:44.984Z,18.02
2023-05-19T07:16:13.271Z,18.36
2023-05-19T07:18:40.024Z,19.50
2023-05-19T07:21:07.291Z,20.23
2023-05-19T07:23:33.927Z,20.79
2023-05-19T07:26:00.441Z,21.06
2023-05-19T07:28:26.971Z,21.50
2023-05-19T07:30:53.490Z,22.41
2023-05-19T07:33:20.022Z,21.77
2023-05-19T07:35:46.633Z,21.91
2023-05-19T07:38:13.198Z,22.17
2023-05-19T07:40:39.743Z,22.21
2023-05-19T07:43:06.375Z,21.74
2023-05-19T07:45:32.997Z,21.09
2023-05-19T07:47:59.676Z,22.40
2023-05-19T07:50:26.785Z,21.88
2023-05-19T07:52:53.324Z,22.69
2023-05-19T07:55:23.075Z,22.57
2023-05-19T07:57:50.828Z,21.52
2023-05-19T08:00:17.856Z,20.97
2023-05-19T08:02:44.848Z,20.60
2023-05-19T08:05:11.603Z,20.73
2023-05-19T08:07:38.148Z,20.08
2023-05-19T08:10:05.177Z,21.18
2023-05-19T08:12:32.436Z,20.52
2023-05-19T08:15:01.028Z,20.87
2023-05-19T08:17:28.302Z,20.85
2023-05-19T08:19:55.145Z,20.65
2023-05-19T08:22:21.656Z,18.88
2023-05-19T08:24:49.715Z,18.58
2023-05-19T08:27:16.684Z,18.78
2023-05-19T08:29:43.655Z,18.03
2023-05-19T08:32:13.026Z,18.67
2023-05-19T08:34:39.974Z,17.68
2023-05-19T08:37:07.012Z,18.31
2023-05-19T08:39:34.794Z,18.43
2023-05-19T08:42:02.346Z,18.55
2023-05-19T08:44:30.804Z,18.11
2023-05-19T08:47:02.917Z,17.95
2023-05-19T08:49:32.966Z,17.82
2023-05-19T08:52:22.023Z,17.77
2023-05-19T08:55:09.539Z,17.67
2023-05-19T08:57:36.722Z,17.39
2023-05-19T09:00:12.111Z,17.40
2023-05-19T09:02:50.311Z,17.65
2023-05-19T09:05:26.219Z,17.41
2023-05-19T09:07:52.873Z,17.88
2023-05-19T09:10:19.592Z,18.27
2023-05-19T09:12:47.749Z,18.49
2023-05-19T09:15:20.700Z,18.73
2023-05-19T09:17:50.005Z,18.69
2023-05-19T09:20:19.357Z,18.63
2023-05-19T09:22:47.418Z,18.56
2023-05-19T09:25:23.257Z,18.26
2023-05-19T09:27:50.539Z,17.69
2023-05-19T09:30:17.951Z,17.81
2023-05-19T09:32:45.604Z,17.51
2023-05-19T09:35:13.422Z,17.95
2023-05-19T09:37:41.332Z,16.96
2023-05-19T09:40:11.221Z,16.99
2023-05-19T09:42:40.275Z,17.47
2023-05-19T09:45:08.561Z,17.21
2023-05-19T09:47:39.142Z,17.23
2023-05-19T09:50:10.182Z,17.58
2023-05-19T09:52:38.596Z,17.72
2023-05-19T09:55:06.743Z,17.34
2023-05-19T09:57:36.920Z,17.60
2023-05-19T10:00:14.898Z,17.59
2023-05-19T10:02:43.912Z,17.46
2023-05-19T10:05:17.497Z,17.54
2023-05-19T10:07:45.769Z,16.81
2023-05-19T10:10:13.959Z,16.81
2023-05-19T10:12:42.029Z,17.21
2023-05-19T10:15:15.218Z,17.35
2023-05-19T10:17:43.684Z,17.26
2023-05-19T10:20:17.347Z,17.42
2023-05-19T10:22:46.045Z,17.42
2023-05-19T10:25:15.488Z,17.31
2023-05-19T10:27:51.254Z,17.32
2023-05-19T10:30:23.530Z,17.69
2023-05-19T10:32:51.955Z,17.57
2023-05-19T10:35:47.352Z,18.28
2023-05-19T10:38:48.296Z,18.79
2023-05-19T10:41:53.666Z,19.42
2023-05-19T10:44:50.710Z,19.04
2023-05-19T10:47:24.348Z,19.01
2023-05-19T10:49:53.656Z,18.77
2023-05-19T10:52:27.116Z,18.78
2023-05-19T10:54:54.771Z,18.86
2023-05-19T10:57:28.573Z,18.77
2023-05-19T10:59:56.266Z,18.67
2023-05-19T11:02:41.017Z,18.95
2023-05-19T11:05:09.755Z,19.36
2023-05-19T11:07:36.717Z,19.31
2023-05-19T11:10:09.877Z,19.40
2023-05-19T11:12:45.737Z,19.20
2023-05-19T11:15:14.342Z,19.29
2023-05-19T11:17:44.874Z,19.49
2023-05-19T11:20:40.748Z,19.22
2023-05-19T11:23:15.328Z,19.01
2023-05-19T11:25:49.656Z,18.75
2023-05-19T11:28:19.565Z,18.80
2023-05-19T11:30:51.701Z,19.25
2023-05-19T11:33:20.262Z,19.47
2023-05-19T11:35:49.497Z,19.75
2023-05-19T11:38:18.553Z,19.62
2023-05-19T11:40:45.278Z,20.02
2023-05-19T11:43:11.829Z,19.95
2023-05-19T11:45:39.041Z,19.22
2023-05-19T11:48:06.959Z,19.02
2023-05-19T11:50:33.669Z,19.02
2023-05-19T11:53:01.485Z,19.55
2023-05-19T11:55:29.227Z,18.97
2023-05-19T11:58:04.007Z,19.81
2023-05-19T12:00:37.622Z,19.53
2023-05-19T12:03:04.551Z,19.54
2023-05-19T12:05:33.935Z,19.10
2023-05-19T12:08:04.259Z,18.71
2023-05-19T12:10:33.748Z,18.68
2023-05-19T12:13:00.781Z,19.29
2023-05-19T12:15:27.356Z,18.86
2023-05-19T12:18:02.260Z,19.06
2023-05-19T12:20:32.372Z,19.23
2023-05-19T12:23:00.449Z,19.94
2023-05-19T12:25:29.031Z,21.39
2023-05-19T12:28:00.613Z,21.67
2023-05-19T12:30:29.146Z,19.99
2023-05-19T12:32:59.426Z,21.66
2023-05-19T12:35:28.078Z,22.84
2023-05-19T12:37:55.039Z,23.45
2023-05-19T12:40:22.040Z,23.16
2023-05-19T12:42:51.876Z,22.82
2023-05-19T12:45:21.916Z,23.58
2023-05-19T12:47:49.505Z,23.55
2023-05-19T12:50:16.259Z,23.00
2023-05-19T12:52:48.196Z,22.45
2023-05-19T12:55:16.582Z,21.21
2023-05-19T12:57:48.647Z,21.91
2023-05-19T13:00:20.839Z,21.76
2023-05-19T13:03:08.559Z,21.61
2023-05-19T13:05:39.875Z,21.49
2023-05-19T13:08:12.270Z,20.50
2023-05-19T13:10:40.321Z,19.97
2023-05-19T13:13:07.999Z,20.33
2023-05-19T13:15:37.586Z,20.20
2023-05-19T13:18:06.767Z,19.68
2023-05-19T13:20:34.128Z,19.78
2023-05-19T13:23:01.053Z,20.01
2023-05-19T13:25:28.019Z,19.79
2023-05-19T13:27:55.193Z,19.62
2023-05-19T13:30:22.636Z,19.85
2023-05-19T13:32:49.192Z,20.01
2023-05-19T13:35:15.977Z,19.96
2023-05-19T13:37:42.660Z,19.75
2023-05-19T13:40:10.092Z,19.57
2023-05-19T13:42:37.100Z,19.61
2023-05-19T13:45:04.071Z,18.61
2023-05-19T13:47:30.863Z,18.69
2023-05-19T13:49:57.639Z,18.84
2023-05-19T13:52:24.395Z,19.11
2023-05-19T13:54:50.987Z,19.19
2023-05-19T13:57:17.614Z,19.34
2023-05-19T13:59:57.762Z,19.10
2023-05-19T14:02:28.054Z,18.88
2023-05-19T14:04:55.885Z,18.60
2023-05-19T14:07:22.452Z,18.68
2023-05-19T14:09:51.002Z,18.80
2023-05-19T14:12:17.659Z,18.96
2023-05-19T14:14:44.379Z,19.13
2023-05-19T14:17:12.157Z,18.77
2023-05-19T14:19:38.950Z,18.49
2023-05-19T14:22:05.890Z,18.38
2023-05-19T14:24:32.496Z,18.19
2023-05-19T14:26:59.051Z,17.77
2023-05-19T14:29:25.712Z,18.05
2023-05-19T14:31:52.307Z,18.11
2023-05-19T14:34:21.068Z,18.36
2023-05-19T14:36:48.996Z,18.45
2023-05-19T14:39:16.014Z,18.09
2023-05-19T14:41:42.577Z,18.09
2023-05-19T14:44:09.091Z,17.82
2023-05-19T14:46:36.149Z,17.90
2023-05-19T14:49:03.486Z,17.88
2023-05-19T14:51:30.064Z,17.76
2023-05-19T14:53:56.630Z,17.46
2023-05-19T14:56:23.210Z,17.32
2023-05-19T14:58:49.710Z,17.44
2023-05-19T15:01:16.406Z,17.18
2023-05-19T15:03:42.996Z,17.32
2023-05-19T15:06:10.792Z,17.62
2023-05-19T15:08:37.859Z,17.40
2023-05-19T15:11:04.702Z,17.43
2023-05-19T15:13:31.359Z,17.24
2023-05-19T15:16:15.015Z,17.47
2023-05-19T15:18:43.405Z,17.13
2023-05-19T15:21:10.117Z,16.96
2023-05-19T15:23:36.660Z,17.00
2023-05-19T15:26:03.180Z,17.18
2023-05-19T15:28:29.755Z,17.34
2023-05-19T15:30:56.452Z,17.15
2023-05-19T15:33:23.062Z,16.96
2023-05-19T15:35:51.725Z,17.01
2023-05-19T15:38:19.360Z,16.93
2023-05-19T15:40:46.694Z,16.98
2023-05-19T15:43:13.353Z,16.93
2023-05-19T15:45:39.864Z,16.87
2023-05-19T15:48:06.679Z,16.73
2023-05-19T15:50:33.395Z,16.87
2023-05-19T15:53:00.042Z,16.91
2023-05-19T15:55:26.558Z,16.95
2023-05-19T15:57:53.069Z,17.00
2023-05-19T16:00:20.378Z,17.01
2023-05-19T16:02:47.028Z,17.11
2023-05-19T16:05:13.610Z,17.02
2023-05-19T16:07:42.002Z,17.07
2023-05-19T16:10:09.078Z,16.98
2023-05-19T16:12:36.575Z,16.84
2023-05-19T16:15:03.849Z,16.66
2023-05-19T16:17:30.615Z,16.64
2023-05-19T16:19:57.262Z,16.55
2023-05-19T16:22:24.910Z,16.63
2023-05-19T16:24:52.251Z,16.56
2023-05-19T16:27:18.992Z,16.54
2023-05-19T16:29:45.620Z,16.58
2023-05-19T16:32:12.435Z,16.66
2023-05-19T16:34:39.306Z,16.62
2023-05-19T16:37:05.886Z,16.76
2023-05-19T16:39:32.462Z,16.57
2023-05-19T16:41:58.951Z,16.54
2023-05-19T16:44:25.654Z,16.42
2023-05-19T16:46:52.191Z,16.40
2023-05-19T16:49:18.738Z,16.39
2023-05-19T16:51:46.814Z,16.33
2023-05-19T16:54:14.773Z,16.39
2023-05-19T16:56:42.535Z,16.32
2023-05-19T16:59:09.373Z,16.20
2023-05-19T17:01:36.009Z,16.43
2023-05-19T17:04:02.815Z,16.45
2023-05-19T17:06:29.492Z,16.37
2023-05-19T17:08:56.074Z,16.53
2023-05-19T17:11:22.687Z,16.43
2023-05-19T17:13:49.229Z,16.29
2023-05-19T17:16:15.971Z,16.35
2023-05-19T17:18:43.711Z,16.42
2023-05-19T17:21:10.604Z,16.44
2023-05-19T17:23:37.834Z,16.46
2023-05-19T17:26:04.616Z,16.35
2023-05-19T17:28:31.154Z,16.41
2023-05-19T17:30:57.776Z,16.42
2023-05-19T17:33:24.569Z,16.36
2023-05-19T17:35:51.247Z,15.98
2023-05-19T17:38:17.802Z,16.06
2023-05-19T17:40:44.588Z,15.98
2023-05-19T17:43:11.212Z,16.04
2023-05-19T17:45:37.814Z,16.18
2023-05-19T17:48:04.920Z,16.09
2023-05-19T17:50:31.802Z,15.94
2023-05-19T17:52:58.863Z,15.80
2023-05-19T17:55:29.734Z,15.70
2023-05-19T17:57:57.232Z,15.42
2023-05-19T18:00:25.237Z,15.33
2023-05-19T18:02:53.088Z,15.36
2023-05-19T18:05:20.355Z,15.47
2023-05-19T18:07:48.588Z,15.47
2023-05-19T18:10:16.200Z,15.51
2023-05-19T18:12:42.793Z,15.54
2023-05-19T18:15:09.931Z,15.62
2023-05-19T18:17:37.075Z,15.40
2023-05-19T18:20:03.928Z,15.20
2023-05-19T18:22:31.318Z,15.20
2023-05-19T18:24:57.918Z,15.27
2023-05-19T18:27:27.817Z,15.19
2023-05-19T18:29:54.308Z,15.06
2023-05-19T18:32:20.822Z,15.07
2023-05-19T18:34:47.398Z,14.88
2023-05-19T18:37:13.903Z,14.88
2023-05-19T18:39:40.477Z,14.84
2023-05-19T18:42:06.986Z,14.79
2023-05-19T18:44:33.894Z,14.88
2023-05-19T18:47:00.497Z,14.93
2023-05-19T18:49:26.979Z,14.77
2023-05-19T18:51:53.817Z,14.56
2023-05-19T18:54:21.648Z,14.66
2023-05-19T18:56:48.301Z,14.70
2023-05-19T18:59:14.790Z,14.76
2023-05-19T19:01:42.736Z,14.62
2023-05-19T19:04:09.548Z,14.47
2023-05-19T19:06:36.186Z,14.43
2023-05-19T19:09:03.365Z,14.60
2023-05-19T19:11:29.882Z,14.59
2023-05-19T19:13:56.638Z,14.42
2023-05-19T19:16:23.221Z,14.32
2023-05-19T19:18:49.792Z,14.43
2023-05-19T19:21:17.389Z,14.18
2023-05-19T19:23:44.310Z,14.24
2023-05-19T19:26:11.300Z,14.16
2023-05-19T19:28:38.436Z,14.07
2023-05-19T19:31:05.290Z,14.15
2023-05-19T19:33:32.848Z,14.08
2023-05-19T19:36:00.358Z,14.06
2023-05-19T19:38:27.466Z,14.17
2023-05-19T19:40:54.013Z,14.26
2023-05-19T19:43:20.573Z,14.31
2023-05-19T19:45:47.119Z,14.37
2023-05-19T19:48:13.677Z,14.42
2023-05-19T19:50:40.559Z,14.23
2023-05-19T19:53:08.799Z,14.17
2023-05-19T19:55:35.536Z,14.09
2023-05-19T19:58:02.076Z,14.17
2023-05-19T20:00:28.578Z,14.09
2023-05-19T20:03:05.231Z,14.22
2023-05-19T20:05:32.604Z,14.14
2023-05-19T20:07:59.224Z,14.30
2023-05-19T20:10:25.785Z,14.30
2023-05-19T20:12:52.479Z,14.35
2023-05-19T20:15:19.011Z,14.28
2023-05-19T20:17:45.775Z,14.26
2023-05-19T20:20:12.861Z,14.22
2023-05-19T20:22:39.992Z,14.07
2023-05-19T20:25:06.935Z,14.13
2023-05-19T20:27:33.613Z,14.16
2023-05-19T20:30:00.198Z,14.19
2023-05-19T20:32:26.860Z,14.24
2023-05-19T20:34:53.401Z,14.25
2023-05-19T20:37:21.547Z,14.17
2023-05-19T20:39:48.165Z,14.16
2023-05-19T20:42:14.836Z,14.17
2023-05-19T20:44:41.526Z,14.15
2023-05-19T20:47:08.453Z,14.11
2023-05-19T20:49:35.072Z,14.08
2023-05-19T20:52:01.762Z,14.03
2023-05-19T20:54:28.489Z,14.13
2023-05-19T20:56:55.158Z,14.13
2023-05-19T20:59:21.899Z,14.18
2023-05-19T21:01:48.546Z,14.06
2023-05-19T21:04:15.263Z,14.11
2023-05-19T21:06:41.887Z,14.17
2023-05-19T21:09:08.732Z,14.28
2023-05-19T21:11:35.581Z,14.10
2023-05-19T21:14:04.178Z,14.16
2023-05-19T21:16:31.573Z,14.20
2023-05-19T21:18:58.391Z,14.13
2023-05-19T21:21:25.658Z,14.13
2023-05-19T21:23:52.141Z,14.07
2023-05-19T21:26:18.753Z,14.04
2023-05-19T21:28:45.403Z,14.09
2023-05-19T21:31:11.989Z,13.97
2023-05-19T21:33:38.572Z,13.99
2023-05-19T21:36:05.898Z,14.02
2023-05-19T21:38:32.447Z,14.01
2023-05-19T21:40:59.388Z,13.99
2023-05-19T21:43:28.886Z,13.84
2023-05-19T21:45:55.404Z,13.84
2023-05-19T21:48:22.059Z,14.00
2023-05-19T21:50:55.788Z,14.03
2023-05-19T21:53:30.402Z,14.05
2023-05-19T21:55:57.226Z,13.93
2023-05-19T21:58:24.160Z,13.99
2023-05-19T22:00:53.036Z,14.00
2023-05-19T22:03:20.157Z,13.96
2023-05-19T22:05:50.729Z,13.92
2023-05-19T22:08:18.836Z,13.83
2023-05-19T22:10:48.891Z,13.82
2023-05-19T22:13:15.404Z,13.76
2023-05-19T22:15:42.079Z,13.73
2023-05-19T22:18:08.686Z,13.73
2023-05-19T22:20:35.592Z,13.73
2023-05-19T22:23:03.665Z,13.74
2023-05-19T22:25:30.646Z,13.73
2023-05-19T22:27:57.467Z,13.71
2023-05-19T22:30:24.432Z,13.66
2023-05-19T22:32:51.032Z,13.66
2023-05-19T22:35:18.877Z,13.72
2023-05-19T22:37:45.386Z,13.72
2023-05-19T22:40:12.601Z,13.74
2023-05-19T22:42:39.135Z,13.66
2023-05-19T22:45:06.294Z,13.67
2023-05-19T22:47:32.884Z,13.53
2023-05-19T22:49:59.485Z,13.63
2023-05-19T22:52:26.125Z,13.57
2023-05-19T22:54:52.693Z,13.49
2023-05-19T22:57:19.446Z,13.52
2023-05-19T22:59:46.012Z,13.44
2023-05-19T23:02:13.383Z,13.48
2023-05-19T23:04:39.960Z,13.47
2023-05-19T23:07:06.517Z,13.43
2023-05-19T23:09:33.090Z,13.42
2023-05-19T23:11:59.641Z,13.41
2023-05-19T23:14:26.250Z,13.43
2023-05-19T23:16:52.851Z,13.45
2023-05-19T23:19:20.483Z,13.39
2023-05-19T23:21:48.952Z,13.36
2023-05-19T23:24:16.234Z,13.38
2023-05-19T23:26:44.012Z,13.34
2023-05-19T23:29:12.514Z,13.37
2023-05-19T23:31:40.869Z,13.32
2023-05-19T23:34:07.605Z,13.37
2023-05-19T23:36:34.220Z,13.41
2023-05-19T23:39:01.172Z,13.34
2023-05-19T23:41:27.959Z,13.20
2023-05-19T23:43:54.524Z,13.26
2023-05-19T23:46:21.237Z,13.21
2023-05-19T23:48:47.934Z,13.18
2023-05-19T23:51:14.481Z,13.29
2023-05-19T23:53:41.121Z,13.13
2023-05-19T23:56:08.016Z,13.14
2023-05-19T23:58:34.618Z,13.18
